createdAt,value
2023-01-30T01:33:38.973Z,16.98
2023-01-30T01:36:08.022Z,21.90
2023-01-30T01:38:35.972Z,19.50
2023-01-30T01:41:06.539Z,16.70
2023-01-30T01:43:59.649Z,18.55
2023-01-30T01:46:30.983Z,20.67
2023-01-30T01:49:01.863Z,16.73
2023-01-30T01:51:58.967Z,16.58
2023-01-30T01:54:35.900Z,19.08
2023-01-30T01:57:07.019Z,18.05
2023-01-30T01:59:40.559Z,19.33
2023-01-30T02:02:11.648Z,20.67
2023-01-30T02:05:00.916Z,15.75
2023-01-30T02:07:40.203Z,21.80
2023-01-30T02:10:10.476Z,20.13
2023-01-30T02:12:38.969Z,20.30
2023-01-30T02:15:07.719Z,19.27
2023-01-30T02:17:36.689Z,22.92
2023-01-30T02:20:14.578Z,22.65
2023-01-30T02:22:57.635Z,23.60
2023-01-30T02:25:45.739Z,22.17
2023-01-30T02:28:16.471Z,25.60
2023-01-30T02:30:56.500Z,21.70
2023-01-30T02:33:59.115Z,23.35
2023-01-30T02:36:47.008Z,22.33
2023-01-30T02:40:04.325Z,23.95
2023-01-30T02:42:58.315Z,23.85
2023-01-30T02:45:50.785Z,22.60
2023-01-30T02:48:29.404Z,25.15
2023-01-30T02:51:01.562Z,26.20
2023-01-30T02:53:33.921Z,21.88
2023-01-30T02:56:08.044Z,25.48
2023-01-30T02:58:43.435Z,22.88
2023-01-30T03:01:30.411Z,21.10
2023-01-30T03:04:27.826Z,23.48
2023-01-30T03:07:19.329Z,25.60
2023-01-30T03:10:17.960Z,21.70
2023-01-30T03:13:28.729Z,26.88
2023-01-30T03:16:01.992Z,25.60
2023-01-30T03:18:30.262Z,24.38
2023-01-30T03:20:58.236Z,22.95
2023-01-30T03:23:26.210Z,26.42
2023-01-30T03:25:54.459Z,21.67
2023-01-30T03:28:23.769Z,23.63
2023-01-30T03:30:52.255Z,27.45
2023-01-30T03:33:21.095Z,24.00
2023-01-30T03:35:53.735Z,25.73
2023-01-30T03:38:24.141Z,23.58
2023-01-30T03:40:53.326Z,26.88
2023-01-30T03:43:22.256Z,26.17
2023-01-30T03:45:55.386Z,30.88
2023-01-30T03:48:25.643Z,23.90
2023-01-30T03:50:56.956Z,25.30
2023-01-30T03:53:25.686Z,24.58
2023-01-30T03:55:55.880Z,25.23
2023-01-30T03:58:30.299Z,28.33
2023-01-30T04:01:00.669Z,30.95
2023-01-30T04:03:30.191Z,33.17
2023-01-30T04:06:03.047Z,25.52
2023-01-30T04:08:31.826Z,26.90
2023-01-30T04:11:01.637Z,27.88
2023-01-30T04:13:31.052Z,29.98
2023-01-30T04:16:19.754Z,26.92
2023-01-30T04:21:35.147Z,29.23
2023-01-30T04:24:04.275Z,29.30
2023-01-30T04:26:35.605Z,34.05
2023-01-30T04:29:04.105Z,40.60
2023-01-30T04:31:32.623Z,42.83
2023-01-30T04:34:13.873Z,31.05
2023-01-30T04:36:43.868Z,36.33
2023-01-30T04:39:12.521Z,33.70
2023-01-30T04:41:42.281Z,33.60
2023-01-30T04:44:12.351Z,36.35
2023-01-30T04:46:47.170Z,33.00
2023-01-30T04:49:17.276Z,30.23
2023-01-30T04:51:46.713Z,27.20
2023-01-30T04:54:14.628Z,28.23
2023-01-30T04:56:42.829Z,34.03
2023-01-30T04:59:11.458Z,38.60
2023-01-30T05:01:44.310Z,46.80
2023-01-30T05:04:16.063Z,49.22
2023-01-30T05:06:48.413Z,76.15
2023-01-30T05:09:16.574Z,66.53
2023-01-30T05:11:48.851Z,74.25
2023-01-30T05:14:20.707Z,67.85
2023-01-30T05:16:49.813Z,59.00
2023-01-30T05:19:18.240Z,55.00
2023-01-30T05:21:46.321Z,71.40
2023-01-30T05:24:14.405Z,66.00
2023-01-30T05:26:42.489Z,68.10
2023-01-30T05:29:13.256Z,56.88
2023-01-30T05:31:42.093Z,63.47
2023-01-30T05:34:12.161Z,64.60
2023-01-30T05:36:41.458Z,55.30
2023-01-30T05:39:11.324Z,55.55
2023-01-30T05:41:43.196Z,60.20
2023-01-30T05:44:12.449Z,47.10
2023-01-30T05:46:40.993Z,50.17
2023-01-30T05:49:09.631Z,53.97
2023-01-30T05:51:37.667Z,66.95
2023-01-30T05:54:05.949Z,48.70
2023-01-30T05:56:34.408Z,34.47
2023-01-30T05:59:02.799Z,39.83
2023-01-30T06:01:33.657Z,31.67
2023-01-30T06:04:03.516Z,32.30
2023-01-30T06:06:32.667Z,35.03
2023-01-30T06:09:00.708Z,31.73
2023-01-30T06:11:33.053Z,31.40
2023-01-30T06:14:02.382Z,33.63
2023-01-30T06:16:32.633Z,28.27
2023-01-30T06:19:01.118Z,31.30
2023-01-30T06:21:29.231Z,33.08
2023-01-30T06:23:57.260Z,31.00
2023-01-30T06:26:25.396Z,39.40
2023-01-30T06:28:53.241Z,38.45
2023-01-30T06:31:21.370Z,38.88
2023-01-30T06:33:51.897Z,36.55
2023-01-30T06:36:20.237Z,34.55
2023-01-30T06:38:49.405Z,35.55
2023-01-30T06:41:21.369Z,33.22
2023-01-30T06:43:49.848Z,37.97
2023-01-30T06:46:19.067Z,40.90
2023-01-30T06:48:48.384Z,39.75
2023-01-30T06:51:22.319Z,45.30
2023-01-30T06:53:53.338Z,36.78
2023-01-30T06:56:22.580Z,38.53
2023-01-30T06:58:54.122Z,34.13
2023-01-30T07:01:22.476Z,34.00
2023-01-30T11:15:20.944Z,15.48
2023-01-30T11:17:49.367Z,19.92
2023-01-30T11:20:19.418Z,17.40
2023-01-30T11:23:07.897Z,20.00
2023-01-30T11:25:56.693Z,14.88
2023-01-30T11:28:49.407Z,22.33
2023-01-30T11:31:42.059Z,25.58
2023-01-30T11:34:16.529Z,40.13
2023-01-30T11:37:38.371Z,38.67
2023-01-30T11:40:31.276Z,38.63
2023-01-30T11:43:03.207Z,40.55
2023-01-30T11:45:37.403Z,39.15
2023-01-30T11:48:23.569Z,41.35
2023-01-30T11:51:03.621Z,42.72
2023-01-30T11:53:45.026Z,40.35
2023-01-30T11:56:58.037Z,39.75
2023-01-30T11:59:40.995Z,41.58
2023-01-30T12:02:43.591Z,36.55
2023-01-30T12:05:26.822Z,38.50
2023-01-30T12:07:55.547Z,36.58
2023-01-30T12:10:31.671Z,41.75
2023-01-30T12:13:06.982Z,39.17
2023-01-30T12:15:38.120Z,37.70
2023-01-30T12:18:33.398Z,27.75
2023-01-30T12:21:12.023Z,25.27
2023-01-30T12:23:57.112Z,26.35
2023-01-30T12:26:27.784Z,29.30
2023-01-30T12:29:17.212Z,21.83
2023-01-30T12:31:48.580Z,19.88
2023-01-30T12:34:20.247Z,16.83
2023-01-30T12:37:25.980Z,23.35
2023-01-30T12:40:26.394Z,21.00
2023-01-30T12:43:12.472Z,16.70
2023-01-30T12:45:57.048Z,22.30
2023-01-30T12:52:43.333Z,19.80
2023-01-30T12:55:37.928Z,18.33
2023-01-30T12:58:22.317Z,17.30
2023-01-30T13:01:27.505Z,18.13
2023-01-30T13:04:26.984Z,18.45
2023-01-30T13:07:27.272Z,18.33
2023-01-30T13:10:41.103Z,21.35
2023-01-30T13:14:04.062Z,20.25
2023-01-30T13:16:51.308Z,32.13
2023-01-30T13:19:47.614Z,21.42
2023-01-30T13:26:05.805Z,16.83
2023-01-30T13:31:40.415Z,23.00
2023-01-30T13:37:33.920Z,21.48
2023-01-30T13:40:27.095Z,23.02
2023-01-30T13:43:14.040Z,18.55
2023-01-30T13:45:46.831Z,20.33
2023-01-30T13:48:43.970Z,19.17
2023-01-30T13:52:00.664Z,20.73
2023-01-30T13:55:23.587Z,22.27
2023-01-30T13:58:36.841Z,28.80
2023-01-30T14:01:08.550Z,23.23
2023-01-30T14:04:46.499Z,24.30
2023-01-30T14:07:44.945Z,27.27
2023-01-30T14:10:26.836Z,25.75
2023-01-30T14:13:13.959Z,30.27
2023-01-30T14:16:08.414Z,28.02
2023-01-30T14:18:39.100Z,29.00
2023-01-30T14:21:20.365Z,34.67
2023-01-30T14:24:40.115Z,31.40
2023-01-30T14:28:01.816Z,41.05
2023-01-30T14:33:23.541Z,51.80
2023-01-30T14:36:09.225Z,54.10
2023-01-30T14:38:41.905Z,67.07
2023-01-30T14:41:16.723Z,70.72
2023-01-30T14:43:45.895Z,64.63
2023-01-30T14:46:22.961Z,65.05
2023-01-30T14:49:25.376Z,54.45
2023-01-30T14:51:59.552Z,42.20
2023-01-30T14:54:41.326Z,43.85
2023-01-30T14:57:33.211Z,41.40
2023-01-30T15:00:19.264Z,44.70
2023-01-30T15:02:56.369Z,62.55
2023-01-30T15:05:46.443Z,50.13
2023-01-30T15:08:21.399Z,56.35
2023-01-30T15:13:39.509Z,56.72
2023-01-30T15:16:40.296Z,73.38
2023-01-30T15:19:25.411Z,73.53
2023-01-30T15:22:45.472Z,75.90
2023-01-30T15:25:20.126Z,68.40
2023-01-30T15:28:20.994Z,71.65
2023-01-30T15:31:00.802Z,67.40
2023-01-30T15:33:32.159Z,60.40
2023-01-30T15:36:12.256Z,68.60
2023-01-30T15:38:43.756Z,93.22
2023-01-30T15:41:16.813Z,88.63
2023-01-30T15:44:06.447Z,92.28
2023-01-30T15:46:57.680Z,80.55
2023-01-30T15:49:57.197Z,91.68
2023-01-30T15:52:30.655Z,103.47
2023-01-30T15:55:03.689Z,100.60
2023-01-30T15:57:37.424Z,122.57
2023-01-30T16:00:07.451Z,109.47
2023-01-30T16:02:47.401Z,124.00
2023-01-30T16:05:23.672Z,184.88
2023-01-30T16:07:59.250Z,178.20
2023-01-30T16:10:29.989Z,151.80
2023-01-30T16:12:59.594Z,133.25
2023-01-30T19:26:15.494Z,16.95
2023-01-30T19:28:44.873Z,18.75
2023-01-30T19:31:18.271Z,17.27
2023-01-30T19:33:47.619Z,17.08
2023-01-30T19:36:17.442Z,20.17
2023-01-30T19:38:46.077Z,19.55
2023-01-30T19:41:25.645Z,22.50
2023-01-30T19:43:55.853Z,16.98
2023-01-30T19:46:29.236Z,19.92
2023-01-30T19:48:58.037Z,19.90
2023-01-30T19:51:32.287Z,17.98
2023-01-30T19:54:06.270Z,16.40
2023-01-30T19:56:34.526Z,14.73
2023-01-30T19:59:02.624Z,17.92
2023-01-30T20:01:35.192Z,18.65
2023-01-30T20:04:03.641Z,20.45
2023-01-30T20:06:33.517Z,19.77
2023-01-30T20:09:04.084Z,17.83
2023-01-30T20:11:35.049Z,17.83
2023-01-30T20:14:05.396Z,17.52
2023-01-30T20:16:35.936Z,15.85
2023-01-30T20:19:06.372Z,19.92
2023-01-30T20:21:34.535Z,16.80
2023-01-30T20:24:05.817Z,18.27
2023-01-30T20:26:35.827Z,14.07
2023-01-30T20:29:04.563Z,16.20
2023-01-30T20:31:35.059Z,16.50
2023-01-30T20:34:03.812Z,18.17
2023-01-30T20:36:31.884Z,20.52
2023-01-30T20:39:02.218Z,18.23
2023-01-30T20:41:32.441Z,20.13
2023-01-30T20:44:00.840Z,18.52
2023-01-30T20:46:31.075Z,25.48
2023-01-30T20:49:01.716Z,17.83
2023-01-30T20:51:31.827Z,16.70
2023-01-30T20:54:05.417Z,15.07
2023-01-30T20:56:50.391Z,19.48
2023-01-30T20:59:28.811Z,18.40
2023-01-30T21:01:56.847Z,15.25
2023-01-30T21:04:24.826Z,17.23
2023-01-30T21:06:56.113Z,19.65
2023-01-30T21:09:25.909Z,19.52
2023-01-30T21:11:56.824Z,20.52
2023-01-30T21:14:28.201Z,20.10
2023-01-30T21:16:57.051Z,19.63
2023-01-30T21:19:41.987Z,21.55
2023-01-30T21:22:12.818Z,20.65
2023-01-30T21:24:41.571Z,19.38
2023-01-30T21:27:13.897Z,20.10
2023-01-30T21:29:44.911Z,21.77
2023-01-30T21:32:19.899Z,17.75
2023-01-30T21:34:48.202Z,17.10
2023-01-30T21:41:30.203Z,16.65
2023-01-30T21:44:08.053Z,13.93
2023-01-30T21:46:40.066Z,14.35
2023-01-30T21:49:08.360Z,15.15
2023-01-30T21:52:09.780Z,16.08
2023-01-30T21:54:44.991Z,13.50
2023-01-30T21:57:18.187Z,14.77
2023-01-30T21:59:46.306Z,12.63
2023-01-30T22:02:17.287Z,14.73
2023-01-30T22:04:45.336Z,17.77
2023-01-30T22:07:22.290Z,17.73
2023-01-30T22:09:50.392Z,19.45
2023-01-30T22:12:21.995Z,16.90
2023-01-30T22:14:55.142Z,14.10
2023-01-30T22:17:36.676Z,17.88
2023-01-30T22:20:09.228Z,14.05
2023-01-30T22:22:38.714Z,15.82
2023-01-30T22:25:29.003Z,14.10
2023-01-30T22:27:57.665Z,14.63
2023-01-30T22:30:29.658Z,13.35
2023-01-30T22:32:57.522Z,14.35
2023-01-30T22:35:52.057Z,17.90
2023-01-30T22:38:24.023Z,13.18
2023-01-30T22:41:16.326Z,15.00
2023-01-30T22:44:05.380Z,16.92
2023-01-30T22:46:34.773Z,13.48
2023-01-30T22:49:06.240Z,16.15
2023-01-30T22:51:40.533Z,17.15
2023-01-30T22:54:11.383Z,15.95
2023-01-30T22:56:43.956Z,18.02
2023-01-30T22:59:12.193Z,15.75
2023-01-30T23:01:42.452Z,17.23
2023-01-30T23:04:18.505Z,18.52
2023-01-30T23:06:47.409Z,17.63
2023-01-30T23:09:19.045Z,21.63
2023-01-30T23:12:09.672Z,15.30
2023-01-30T23:14:38.260Z,19.60
2023-01-30T23:17:26.088Z,22.88
2023-01-30T23:19:55.623Z,20.98
2023-01-30T23:22:25.026Z,20.23
2023-01-30T23:24:53.311Z,19.00
2023-01-30T23:27:21.523Z,18.40
2023-01-30T23:29:49.333Z,21.02
2023-01-30T23:32:20.371Z,17.50
2023-01-30T23:34:48.735Z,19.13
2023-01-30T23:37:17.001Z,19.20
2023-01-30T23:39:49.589Z,17.08
2023-01-30T23:42:17.597Z,18.35
2023-01-30T23:44:55.228Z,19.52
2023-01-30T23:47:25.649Z,18.55
2023-01-30T23:49:53.755Z,19.90
2023-01-30T23:52:21.935Z,19.77
2023-01-30T23:54:53.200Z,16.15
2023-01-30T23:57:21.282Z,16.05
2023-01-30T23:59:49.253Z,17.92
